createdAt,value
2022-11-02T00:02:18.319Z,101977.50
2022-11-02T00:05:26.788Z,101979.75
2022-11-02T00:08:32.366Z,101965.28
2022-11-02T00:11:38.140Z,101975.38
2022-11-02T00:14:43.757Z,101974.13
2022-11-02T00:17:53.347Z,101974.28
2022-11-02T00:20:59.347Z,101968.28
2022-11-02T00:24:07.680Z,101976.25
2022-11-02T00:27:12.984Z,101985.66
2022-11-02T00:30:18.413Z,101984.22
2022-11-02T00:33:24.106Z,101973.91
2022-11-02T00:36:29.633Z,101981.72
2022-11-02T00:39:35.229Z,101974.50
2022-11-02T00:42:40.669Z,101970.34
2022-11-02T00:45:46.023Z,101967.84
2022-11-02T00:48:51.547Z,101977.97
2022-11-02T00:51:57.142Z,101969.78
2022-11-02T00:55:03.946Z,101975.69
2022-11-02T00:58:09.555Z,101974.50
2022-11-02T01:01:15.609Z,101971.81
2022-11-02T01:04:21.333Z,101966.16
2022-11-02T01:07:28.593Z,101962.38
2022-11-02T01:10:34.164Z,101966.00
2022-11-02T01:13:39.731Z,101964.13
2022-11-02T01:19:51.963Z,101959.63
2022-11-02T01:22:59.533Z,101958.00
2022-11-02T01:26:10.896Z,101953.16
2022-11-02T01:29:16.007Z,101947.66
2022-11-02T01:32:21.544Z,101940.63
2022-11-02T01:35:27.081Z,101950.03
2022-11-02T01:38:33.713Z,101943.44
2022-11-02T01:41:39.317Z,101940.97
2022-11-02T01:44:44.883Z,101946.31
2022-11-02T01:47:50.101Z,101942.16
2022-11-02T01:50:56.223Z,101947.13
2022-11-02T01:54:13.334Z,101955.00
2022-11-02T01:57:22.067Z,101939.78
2022-11-02T02:00:27.609Z,101950.03
2022-11-02T02:03:35.513Z,101944.06
2022-11-02T02:06:42.278Z,101943.38
2022-11-02T02:09:50.453Z,101937.28
2022-11-02T02:12:57.680Z,101933.03
2022-11-02T02:16:12.326Z,101944.50
2022-11-02T02:19:37.764Z,101931.09
2022-11-02T02:22:55.128Z,101933.34
2022-11-02T02:26:23.504Z,101935.88
2022-11-02T02:29:55.673Z,101936.72
2022-11-02T02:33:16.504Z,101929.31
2022-11-02T02:36:30.106Z,101926.94
2022-11-02T02:39:43.740Z,101931.72
2022-11-02T02:43:02.481Z,101924.56
2022-11-02T02:46:17.274Z,101927.09
2022-11-02T02:49:30.381Z,101925.16
2022-11-02T02:52:38.115Z,101922.91
2022-11-02T02:55:50.079Z,101924.19
2022-11-02T02:59:00.591Z,101920.03
2022-11-02T03:02:14.394Z,101928.81
2022-11-02T03:05:25.986Z,101924.69
2022-11-02T03:08:36.465Z,101926.34
2022-11-02T03:12:10.005Z,101937.50
2022-11-02T03:15:30.874Z,101931.78
2022-11-02T03:18:53.563Z,101927.47
2022-11-02T03:22:45.572Z,101930.13
2022-11-02T03:26:27.705Z,101930.09
2022-11-02T03:29:44.095Z,101934.00
2022-11-02T03:33:17.570Z,101933.41
2022-11-02T03:36:37.293Z,101938.06
2022-11-02T03:39:52.732Z,101935.78
2022-11-02T03:43:00.953Z,101953.03
2022-11-02T03:46:10.623Z,101942.03
2022-11-02T03:49:20.785Z,101933.88
2022-11-02T03:52:32.066Z,101941.81
2022-11-02T03:55:46.806Z,101947.44
2022-11-02T03:58:53.130Z,101952.75
2022-11-02T04:02:01.765Z,101957.06
2022-11-02T04:05:09.262Z,101972.31
2022-11-02T04:08:23.197Z,101967.63
2022-11-02T04:11:55.644Z,101970.94
2022-11-02T04:15:01.996Z,101974.16
2022-11-02T04:18:28.150Z,101968.22
2022-11-02T04:21:34.596Z,101970.03
2022-11-02T04:25:01.634Z,101975.38
2022-11-02T04:28:10.211Z,101968.00
2022-11-02T04:31:28.889Z,101973.28
2022-11-02T04:34:35.008Z,101971.28
2022-11-02T04:38:02.079Z,101974.72
2022-11-02T04:41:34.411Z,101977.25
2022-11-02T04:44:40.939Z,101980.94
2022-11-02T04:48:06.372Z,101987.69
2022-11-02T04:51:14.060Z,101990.63
2022-11-02T04:54:20.060Z,101986.50
2022-11-02T04:57:31.193Z,101990.03
2022-11-02T05:00:41.089Z,101983.63
2022-11-02T05:03:52.639Z,101977.44
2022-11-02T05:07:01.705Z,101975.00
2022-11-02T05:10:12.640Z,101983.41
2022-11-02T05:13:19.648Z,101986.50
2022-11-02T05:16:26.688Z,101996.75
2022-11-02T05:19:33.134Z,102003.00
2022-11-02T05:22:45.152Z,101997.66
2022-11-02T05:25:57.893Z,101993.75
2022-11-02T05:29:04.586Z,101995.75
2022-11-02T05:32:12.399Z,102000.09
2022-11-02T05:35:18.331Z,101995.16
2022-11-02T05:38:25.375Z,101996.19
2022-11-02T05:41:31.568Z,102003.16
2022-11-02T05:44:39.019Z,102002.50
2022-11-02T05:47:44.831Z,101999.88
2022-11-02T05:50:55.364Z,101992.47
2022-11-02T05:54:01.522Z,101991.03
2022-11-02T05:57:07.357Z,102000.34
2022-11-02T06:00:13.743Z,102003.88
2022-11-02T06:03:20.335Z,102008.94
2022-11-02T06:06:26.307Z,102012.81
2022-11-02T06:09:32.281Z,102016.31
2022-11-02T06:12:38.198Z,102012.38
2022-11-02T06:15:44.083Z,102018.09
2022-11-02T06:18:50.123Z,102020.03
2022-11-02T06:21:56.097Z,102020.66
2022-11-02T06:25:01.631Z,102034.19
2022-11-02T06:28:07.551Z,102032.13
2022-11-02T06:31:16.672Z,102032.59
2022-11-02T06:34:22.928Z,102044.44
2022-11-02T06:37:29.167Z,102047.13
2022-11-02T06:40:35.564Z,102054.81
2022-11-02T06:43:41.546Z,102056.59
2022-11-02T06:46:47.698Z,102068.28
2022-11-02T06:49:53.756Z,102075.88
2022-11-02T06:52:59.579Z,102072.38
2022-11-02T06:56:05.645Z,102074.66
2022-11-02T06:59:11.483Z,102083.66
2022-11-02T07:02:17.294Z,102089.16
2022-11-02T07:05:22.753Z,102088.50
2022-11-02T07:08:29.998Z,102088.84
2022-11-02T07:11:36.254Z,102081.25
2022-11-02T07:14:42.034Z,102073.22
2022-11-02T07:17:48.062Z,102081.84
2022-11-02T07:20:53.792Z,102092.63
2022-11-02T07:23:59.673Z,102087.25
2022-11-02T07:27:05.669Z,102082.47
2022-11-02T07:30:11.387Z,102087.19
2022-11-02T07:33:17.156Z,102081.44
2022-11-02T07:36:22.935Z,102086.75
2022-11-02T07:39:28.891Z,102093.78
2022-11-02T07:42:34.601Z,102099.28
2022-11-02T07:45:43.347Z,102110.38
2022-11-02T07:48:49.209Z,102113.22
2022-11-02T07:51:57.069Z,102115.22
2022-11-02T07:55:03.067Z,102107.00
2022-11-02T07:58:14.238Z,102101.44
2022-11-02T08:01:20.264Z,102104.50
2022-11-02T08:04:25.757Z,102101.75
2022-11-02T08:07:31.843Z,102103.31
2022-11-02T08:10:40.418Z,102099.94
2022-11-02T08:13:46.373Z,102099.16
2022-11-02T08:16:52.773Z,102088.63
2022-11-02T08:19:58.910Z,102093.03
2022-11-02T08:23:05.557Z,102083.03
2022-11-02T08:26:10.985Z,102080.72
2022-11-02T08:29:16.060Z,102081.44
2022-11-02T08:32:21.716Z,102088.22
2022-11-02T08:35:27.112Z,102089.03
2022-11-02T08:38:32.998Z,102096.44
2022-11-02T08:41:38.716Z,102098.28
2022-11-02T08:44:44.165Z,102086.75
2022-11-02T08:47:49.534Z,102079.13
2022-11-02T08:50:56.605Z,102073.22
2022-11-02T08:54:01.755Z,102067.16
2022-11-02T08:57:07.486Z,102062.22
2022-11-02T09:00:14.551Z,102049.84
2022-11-02T09:03:26.194Z,102036.28
2022-11-02T09:06:32.731Z,102049.97
2022-11-02T09:09:38.607Z,102051.72
2022-11-02T09:12:44.036Z,102059.84
2022-11-02T09:15:55.010Z,102061.78
2022-11-02T09:19:00.487Z,102062.31
2022-11-02T09:22:05.975Z,102050.25
2022-11-02T09:25:13.009Z,102051.44
2022-11-02T09:28:18.877Z,102066.81
2022-11-02T09:31:25.203Z,102070.44
2022-11-02T09:34:30.525Z,102063.94
2022-11-02T09:37:36.836Z,102060.94
2022-11-02T09:41:02.827Z,102060.09
2022-11-02T09:44:47.385Z,102084.13
2022-11-02T09:48:16.827Z,102089.59
2022-11-02T09:51:24.583Z,102091.28
2022-11-02T09:54:50.366Z,102090.72
2022-11-02T09:58:06.539Z,102093.63
2022-11-02T10:01:29.523Z,102086.84
2022-11-02T10:05:23.141Z,102079.31
2022-11-02T10:08:46.995Z,102081.94
2022-11-02T10:12:13.666Z,102083.31
2022-11-02T10:15:24.316Z,102086.63
2022-11-02T10:18:31.567Z,102093.84
2022-11-02T10:21:39.599Z,102077.22
2022-11-02T10:24:48.390Z,102065.25
2022-11-02T10:28:04.903Z,102058.34
2022-11-02T10:31:27.610Z,102065.06
2022-11-02T10:34:34.783Z,102056.19
2022-11-02T10:37:46.192Z,102045.44
2022-11-02T10:41:03.477Z,102048.13
2022-11-02T10:44:29.992Z,102049.44
2022-11-02T10:47:54.811Z,102048.97
2022-11-02T10:51:12.663Z,102039.97
2022-11-02T10:54:22.823Z,102035.75
2022-11-02T10:57:40.013Z,102037.38
2022-11-02T11:00:46.222Z,102046.97
2022-11-02T11:04:03.621Z,102035.53
2022-11-02T11:07:25.968Z,102038.97
2022-11-02T11:10:39.021Z,102038.03
2022-11-02T11:20:56.652Z,102026.78
2022-11-02T11:24:35.653Z,102017.41
2022-11-02T11:28:00.297Z,102015.31
2022-11-02T11:31:16.224Z,102018.66
2022-11-02T11:34:44.143Z,102017.28
2022-11-02T11:37:57.492Z,102017.41
2022-11-02T11:41:04.796Z,102009.06
2022-11-02T11:44:15.067Z,102009.44
2022-11-02T11:47:27.218Z,101999.56
2022-11-02T11:50:34.250Z,102000.50
2022-11-02T11:53:40.048Z,102001.31
2022-11-02T11:56:46.894Z,101994.41
2022-11-02T11:59:53.396Z,102000.03
2022-11-02T12:03:13.728Z,101998.06
2022-11-02T12:06:34.000Z,101982.19
2022-11-02T12:10:07.219Z,101970.72
2022-11-02T12:13:42.477Z,101948.63
2022-11-02T12:17:28.775Z,101944.75
2022-11-02T12:21:10.776Z,101950.97
2022-11-02T12:24:40.675Z,101954.47
2022-11-02T12:28:09.949Z,101964.25
2022-11-02T12:31:36.846Z,101982.84
2022-11-02T12:35:30.567Z,101983.78
2022-11-02T12:38:54.552Z,101974.78
2022-11-02T12:42:15.584Z,101968.69
2022-11-02T12:45:26.014Z,101964.75
2022-11-02T12:48:43.379Z,101950.47
2022-11-02T12:51:57.161Z,101945.72
2022-11-02T12:55:06.448Z,101939.16
2022-11-02T12:58:28.649Z,101927.03
2022-11-02T13:01:44.715Z,101922.59
2022-11-02T13:04:59.519Z,101926.53
2022-11-02T13:08:16.929Z,101914.97
2022-11-02T13:11:45.357Z,101916.59
2022-11-02T13:14:53.391Z,101924.81
2022-11-02T13:18:18.171Z,101928.28
2022-11-02T13:21:42.783Z,101930.97
2022-11-02T13:24:54.472Z,101941.03
2022-11-02T13:28:28.644Z,101939.25
2022-11-02T13:31:38.020Z,101930.81
2022-11-02T13:34:50.184Z,101931.44
2022-11-02T13:38:10.799Z,101931.53
2022-11-02T13:41:41.147Z,101937.69
2022-11-02T13:45:15.043Z,101940.75
2022-11-02T13:48:42.214Z,101945.53
2022-11-02T13:51:50.088Z,101931.63
2022-11-02T13:55:01.413Z,101933.50
2022-11-02T13:58:07.709Z,101933.69
2022-11-02T14:01:18.463Z,101934.06
2022-11-02T14:04:25.397Z,101918.91
2022-11-02T14:07:41.776Z,101919.84
2022-11-02T14:11:10.859Z,101918.91
2022-11-02T14:14:20.969Z,101906.31
2022-11-02T14:17:26.400Z,101901.63
2022-11-02T14:20:37.621Z,101897.41
2022-11-02T14:23:43.196Z,101901.47
2022-11-02T14:26:57.250Z,101897.13
2022-11-02T14:30:03.249Z,101895.88
2022-11-02T14:33:30.261Z,101906.59
2022-11-02T14:36:41.743Z,101904.78
2022-11-02T14:40:02.966Z,101904.66
2022-11-02T14:43:22.207Z,101916.13
2022-11-02T14:47:02.994Z,101903.38
2022-11-02T14:50:21.252Z,101901.38
2022-11-02T14:53:30.087Z,101922.53
2022-11-02T14:57:19.505Z,101914.84
2022-11-02T15:00:28.463Z,101907.69
2022-11-02T15:03:41.587Z,101899.41
2022-11-02T15:07:06.831Z,101899.50
2022-11-02T15:10:18.345Z,101908.38
2022-11-02T15:13:36.845Z,101911.69
2022-11-02T15:16:42.390Z,101908.38
2022-11-02T15:19:54.126Z,101910.03
2022-11-02T15:23:24.014Z,101903.38
2022-11-02T15:26:56.247Z,101886.91
2022-11-02T15:30:03.440Z,101880.50
2022-11-02T15:33:22.969Z,101868.59
2022-11-02T15:36:34.546Z,101874.78
2022-11-02T15:39:40.420Z,101864.63
2022-11-02T15:43:01.223Z,101867.31
2022-11-02T15:46:28.458Z,101869.75
2022-11-02T15:49:52.730Z,101877.31
2022-11-02T15:53:24.049Z,101877.94
2022-11-02T15:56:48.490Z,101889.72
2022-11-02T16:00:12.647Z,101894.59
2022-11-02T16:03:18.585Z,101892.59
2022-11-02T16:06:39.585Z,101887.22
2022-11-02T16:09:46.892Z,101896.81
2022-11-02T16:13:01.422Z,101893.88
2022-11-02T16:16:08.493Z,101904.59
2022-11-02T16:19:22.614Z,101898.63
2022-11-02T16:22:28.238Z,101891.94
2022-11-02T16:25:39.901Z,101901.84
2022-11-02T16:28:50.377Z,101904.75
2022-11-02T16:31:56.931Z,101904.38
2022-11-02T16:35:02.691Z,101910.78
2022-11-02T16:38:09.772Z,101910.94
2022-11-02T16:41:16.650Z,101916.59
2022-11-02T16:44:28.049Z,101923.56
2022-11-02T16:47:41.304Z,101925.66
2022-11-02T16:51:10.448Z,101918.47
2022-11-02T16:54:46.880Z,101922.84
2022-11-02T16:57:52.663Z,101923.31
2022-11-02T17:01:02.231Z,101921.34
2022-11-02T17:04:30.009Z,101922.53
2022-11-02T17:07:42.273Z,101919.25
2022-11-02T17:10:48.008Z,101924.81
2022-11-02T17:13:57.203Z,101934.16
2022-11-02T17:17:06.458Z,101933.00
2022-11-02T17:20:12.004Z,101937.59
2022-11-02T17:23:36.141Z,101931.41
2022-11-02T17:26:42.346Z,101944.59
2022-11-02T17:29:48.114Z,101952.50
2022-11-02T17:32:53.787Z,101952.72
2022-11-02T17:36:09.089Z,101946.75
2022-11-02T17:39:16.410Z,101945.81
2022-11-02T17:42:40.452Z,101945.88
2022-11-02T17:45:45.604Z,101951.25
2022-11-02T17:48:51.108Z,101943.66
2022-11-02T17:51:56.603Z,101951.25
2022-11-02T17:55:01.982Z,101952.88
2022-11-02T17:58:07.770Z,101963.03
2022-11-02T18:01:14.908Z,101953.69
2022-11-02T18:04:20.778Z,101963.28
2022-11-02T18:07:25.905Z,101977.75
2022-11-02T18:10:36.974Z,101987.59
2022-11-02T18:13:42.321Z,101988.94
2022-11-02T18:16:48.830Z,101988.41
2022-11-02T18:19:54.338Z,101993.25
2022-11-02T18:23:01.333Z,101992.13
2022-11-02T18:26:08.255Z,101997.41
2022-11-02T18:29:13.780Z,102000.25
2022-11-02T18:32:19.575Z,101993.25
2022-11-02T18:35:25.654Z,101996.53
2022-11-02T18:38:31.527Z,101986.91
2022-11-02T18:41:37.838Z,101983.50
2022-11-02T18:44:43.486Z,101984.59
2022-11-02T18:47:49.238Z,101977.91
2022-11-02T18:50:54.612Z,101978.72
2022-11-02T18:54:02.563Z,101975.84
2022-11-02T18:57:07.979Z,101976.72
2022-11-02T19:00:14.338Z,101972.38
2022-11-02T19:03:19.520Z,101977.59
2022-11-02T19:06:44.749Z,101976.78
2022-11-02T19:09:49.869Z,101984.53
2022-11-02T19:12:55.331Z,101982.38
2022-11-02T19:16:00.576Z,101979.25
2022-11-02T19:19:06.012Z,101985.00
2022-11-02T19:22:14.493Z,101985.13
2022-11-02T19:25:19.981Z,101979.09
2022-11-02T19:28:25.330Z,101972.25
2022-11-02T19:31:30.862Z,101983.56
2022-11-02T19:34:37.358Z,101979.09
2022-11-02T19:37:42.497Z,101979.97
2022-11-02T19:40:48.022Z,101983.88
2022-11-02T19:43:53.727Z,101980.75
2022-11-02T19:46:59.429Z,101979.91
2022-11-02T19:50:05.948Z,101976.19
2022-11-02T19:53:11.205Z,101967.94
2022-11-02T19:56:18.765Z,101976.56
2022-11-02T19:59:24.385Z,101973.88
2022-11-02T20:02:30.170Z,101978.00
2022-11-02T20:05:35.736Z,101974.84
2022-11-02T20:08:41.460Z,101973.28
2022-11-02T20:11:48.592Z,101973.28
2022-11-02T20:14:54.384Z,101973.88
2022-11-02T20:18:18.271Z,101971.59
2022-11-02T20:21:33.392Z,101974.03
2022-11-02T20:24:42.686Z,101972.16
2022-11-02T20:27:50.020Z,101972.38
2022-11-02T20:30:57.121Z,101974.94
2022-11-02T20:34:05.688Z,101972.63
2022-11-02T20:37:12.494Z,101969.69
2022-11-02T20:40:19.836Z,101978.00
2022-11-02T20:43:27.495Z,101985.44
2022-11-02T20:46:38.224Z,101985.13
2022-11-02T20:49:51.233Z,101986.91
2022-11-02T20:53:00.339Z,101982.38
2022-11-02T20:56:08.269Z,101971.63
2022-11-02T20:59:14.942Z,101972.25
2022-11-02T21:02:24.124Z,101976.56
2022-11-02T21:05:32.040Z,101972.31
2022-11-02T21:08:38.874Z,101982.31
2022-11-02T21:12:04.600Z,101977.47
2022-11-02T21:15:12.408Z,101987.59
2022-11-02T21:18:19.800Z,101988.19
2022-11-02T21:21:26.898Z,101990.00
2022-11-02T21:24:33.985Z,102004.88
2022-11-02T21:27:40.923Z,102005.50
2022-11-02T21:30:48.238Z,102003.00
2022-11-02T21:33:53.965Z,101992.72
2022-11-02T21:36:59.246Z,101996.00
2022-11-02T21:40:05.573Z,101989.41
2022-11-02T21:43:11.194Z,101989.19
2022-11-02T21:46:16.895Z,101982.59
2022-11-02T21:49:22.951Z,101984.59
2022-11-02T21:52:29.225Z,101986.97
2022-11-02T21:55:34.602Z,101976.25
2022-11-02T21:58:44.837Z,101981.34
2022-11-02T22:01:53.043Z,101976.78
2022-11-02T22:04:59.221Z,101966.66
2022-11-02T22:08:23.191Z,101974.47
2022-11-02T22:11:29.412Z,101978.50
2022-11-02T22:14:34.802Z,101971.50
2022-11-02T22:17:55.705Z,101983.81
2022-11-02T22:21:01.537Z,101985.81
2022-11-02T22:24:08.108Z,101990.28
2022-11-02T22:27:13.287Z,101984.69
2022-11-02T22:30:18.821Z,101978.34
2022-11-02T22:33:26.481Z,101970.00
2022-11-02T22:36:33.829Z,101968.91
2022-11-02T22:39:39.309Z,101968.91
2022-11-02T22:42:44.976Z,101974.03
2022-11-02T22:45:50.627Z,101969.72
2022-11-02T22:48:58.404Z,101971.72
2022-11-02T22:52:03.967Z,101966.56
2022-11-02T22:55:11.040Z,101957.41
2022-11-02T22:58:16.550Z,101974.03
2022-11-02T23:01:24.827Z,101978.47
2022-11-02T23:04:30.452Z,101970.63
2022-11-02T23:07:36.295Z,101966.34
2022-11-02T23:11:00.723Z,101968.25
2022-11-02T23:14:12.151Z,101970.00
2022-11-02T23:17:17.518Z,101963.59
2022-11-02T23:20:22.967Z,101951.81
2022-11-02T23:23:47.267Z,101961.50
2022-11-02T23:26:53.586Z,101964.78
2022-11-02T23:30:17.767Z,101960.56
2022-11-02T23:33:24.781Z,101966.19
2022-11-02T23:36:30.016Z,101966.56
2022-11-02T23:39:50.878Z,101960.56
2022-11-02T23:42:56.494Z,101956.50
2022-11-02T23:46:02.249Z,101961.41
2022-11-02T23:49:08.422Z,101960.94
2022-11-02T23:52:32.517Z,101955.84
2022-11-02T23:55:56.138Z,101955.91
2022-11-02T23:59:07.703Z,101948.22
